createdAt,value
2018-09-27T00:00:39.117Z,99.90
2018-09-27T00:03:09.437Z,99.90
2018-09-27T00:05:40.312Z,99.90
2018-09-27T00:08:10.648Z,99.90
2018-09-27T00:10:41.554Z,99.90
2018-09-27T00:13:12.276Z,99.90
2018-09-27T00:15:42.585Z,99.90
2018-09-27T00:18:12.900Z,99.90
2018-09-27T00:20:43.237Z,99.90
2018-09-27T00:23:13.910Z,99.90
2018-09-27T00:25:44.280Z,99.90
2018-09-27T00:28:14.857Z,99.90
2018-09-27T00:30:45.434Z,99.90
2018-09-27T00:33:15.996Z,99.90
2018-09-27T00:35:45.950Z,99.90
2018-09-27T00:38:16.045Z,99.90
2018-09-27T00:40:46.678Z,99.90
2018-09-27T00:43:16.762Z,99.90
2018-09-27T00:45:47.296Z,99.90
2018-09-27T00:50:57.475Z,99.90
2018-09-27T00:53:27.904Z,99.90
2018-09-27T00:55:58.333Z,99.90
2018-09-27T00:58:29.017Z,99.90
2018-09-27T01:00:59.491Z,99.90
2018-09-27T01:03:30.145Z,99.90
2018-09-27T01:06:00.572Z,99.90
2018-09-27T01:08:31.375Z,99.90
2018-09-27T01:11:01.863Z,99.90
2018-09-27T01:13:32.410Z,99.90
2018-09-27T01:16:02.781Z,99.90
2018-09-27T01:18:33.266Z,99.90
2018-09-27T01:21:04.033Z,99.90
2018-09-27T01:23:34.481Z,99.90
2018-09-27T01:26:04.894Z,99.90
2018-09-27T01:28:35.394Z,99.90
2018-09-27T01:31:05.942Z,99.90
2018-09-27T01:33:36.527Z,99.90
2018-09-27T01:36:07.907Z,99.90
2018-09-27T01:38:38.539Z,99.90
2018-09-27T01:41:09.667Z,99.90
2018-09-27T01:43:40.302Z,99.90
2018-09-27T01:46:11.102Z,99.90
2018-09-27T01:48:41.555Z,99.90
2018-09-27T01:51:12.440Z,99.90
2018-09-27T01:53:43.056Z,99.90
2018-09-27T01:56:13.532Z,99.90
2018-09-27T01:58:43.915Z,99.90
2018-09-27T02:01:14.334Z,99.90
2018-09-27T02:03:44.927Z,99.90
2018-09-27T02:06:15.561Z,99.90
2018-09-27T02:08:46.119Z,99.90
2018-09-27T02:11:16.678Z,99.90
2018-09-27T02:13:48.244Z,99.90
2018-09-27T02:16:18.783Z,99.90
2018-09-27T02:18:50.236Z,99.90
2018-09-27T02:21:20.640Z,99.90
2018-09-27T02:23:50.987Z,99.90
2018-09-27T02:26:21.523Z,99.90
2018-09-27T02:28:51.977Z,99.90
2018-09-27T02:31:22.551Z,99.90
2018-09-27T02:33:53.073Z,99.90
2018-09-27T02:36:23.727Z,99.90
2018-09-27T02:38:54.882Z,99.90
2018-09-27T02:41:25.525Z,99.90
2018-09-27T02:43:56.048Z,99.90
2018-09-27T02:46:26.526Z,99.90
2018-09-27T02:48:56.893Z,99.90
2018-09-27T02:51:27.247Z,99.90
2018-09-27T02:53:57.812Z,99.90
2018-09-27T02:56:28.621Z,99.90
2018-09-27T02:58:58.990Z,99.90
2018-09-27T03:01:29.465Z,99.90
2018-09-27T03:04:00.115Z,99.90
2018-09-27T03:06:30.861Z,99.90
2018-09-27T03:09:02.694Z,99.90
2018-09-27T03:11:33.128Z,99.90
2018-09-27T03:14:03.712Z,99.90
2018-09-27T03:16:34.844Z,99.90
2018-09-27T03:19:06.299Z,99.90
2018-09-27T03:21:37.146Z,99.90
2018-09-27T03:24:07.621Z,99.90
2018-09-27T03:26:38.247Z,99.90
2018-09-27T03:29:09.073Z,99.90
2018-09-27T03:31:39.499Z,99.90
2018-09-27T03:34:10.487Z,99.90
2018-09-27T03:36:41.158Z,99.90
2018-09-27T03:39:11.714Z,99.90
2018-09-27T03:41:42.151Z,99.90
2018-09-27T03:44:12.653Z,99.90
2018-09-27T03:46:43.609Z,99.90
2018-09-27T03:49:14.676Z,99.90
2018-09-27T03:51:45.501Z,99.90
2018-09-27T03:54:16.395Z,99.90
2018-09-27T03:56:47.084Z,99.90
2018-09-27T03:59:17.873Z,99.90
2018-09-27T04:01:48.470Z,99.90
2018-09-27T04:04:19.681Z,99.90
2018-09-27T04:06:50.619Z,99.90
2018-09-27T04:09:21.220Z,99.90
2018-09-27T04:11:52.175Z,99.90
2018-09-27T04:14:22.740Z,99.90
2018-09-27T04:16:53.569Z,99.90
2018-09-27T04:19:24.156Z,99.90
2018-09-27T04:21:55.595Z,99.90
2018-09-27T04:24:26.254Z,99.90
2018-09-27T04:26:56.969Z,99.90
2018-09-27T04:29:27.476Z,99.90
2018-09-27T04:32:04.711Z,99.90
2018-09-27T04:34:37.106Z,99.90
2018-09-27T04:37:14.404Z,99.90
2018-09-27T04:39:53.162Z,99.90
2018-09-27T04:42:26.524Z,99.90
2018-09-27T04:44:57.775Z,99.90
2018-09-27T04:47:28.442Z,99.90
2018-09-27T04:49:59.475Z,99.90
2018-09-27T04:52:30.356Z,99.90
2018-09-27T04:55:00.954Z,99.90
2018-09-27T04:57:31.524Z,99.90
2018-09-27T05:00:02.332Z,99.90
2018-09-27T05:02:32.633Z,99.90
2018-09-27T05:05:03.287Z,99.90
2018-09-27T05:07:33.600Z,99.90
2018-09-27T05:10:04.145Z,99.90
2018-09-27T05:12:34.953Z,99.90
2018-09-27T05:15:05.456Z,99.90
2018-09-27T05:17:35.934Z,99.90
2018-09-27T05:20:07.245Z,99.90
2018-09-27T05:22:37.966Z,99.90
2018-09-27T05:25:08.752Z,99.90
2018-09-27T05:27:39.289Z,99.90
2018-09-27T05:30:09.640Z,99.90
2018-09-27T05:32:40.016Z,99.90
2018-09-27T05:35:10.648Z,99.90
2018-09-27T05:37:40.905Z,99.90
2018-09-27T05:40:12.023Z,99.90
2018-09-27T05:42:42.564Z,99.90
2018-09-27T05:45:13.293Z,99.90
2018-09-27T05:47:44.041Z,99.90
2018-09-27T05:50:14.750Z,99.90
2018-09-27T05:52:45.333Z,99.90
2018-09-27T05:55:15.959Z,99.90
2018-09-27T05:57:46.525Z,99.90
2018-09-27T06:00:18.631Z,99.90
2018-09-27T06:02:50.875Z,99.90
2018-09-27T06:05:22.416Z,99.90
2018-09-27T06:07:53.365Z,99.90
2018-09-27T06:10:23.957Z,99.90
2018-09-27T06:12:55.136Z,99.90
2018-09-27T06:15:26.014Z,99.90
2018-09-27T06:17:56.613Z,99.90
2018-09-27T06:20:35.308Z,99.90
2018-09-27T06:23:07.805Z,99.90
2018-09-27T06:25:38.651Z,99.90
2018-09-27T06:28:09.293Z,99.90
2018-09-27T06:30:39.822Z,99.90
2018-09-27T06:33:11.395Z,99.90
2018-09-27T06:35:42.594Z,99.90
2018-09-27T06:38:13.132Z,99.90
2018-09-27T06:40:43.696Z,99.90
2018-09-27T06:43:14.128Z,99.90
2018-09-27T06:45:44.805Z,99.90
2018-09-27T06:48:15.493Z,99.90
2018-09-27T06:50:46.118Z,99.90
2018-09-27T06:53:17.483Z,99.90
2018-09-27T06:55:49.164Z,99.90
2018-09-27T06:58:19.663Z,99.90
2018-09-27T07:00:50.350Z,99.90
2018-09-27T07:03:21.369Z,99.90
2018-09-27T07:05:52.153Z,99.90
2018-09-27T07:08:22.800Z,99.90
2018-09-27T07:10:53.546Z,99.90
2018-09-27T07:13:24.456Z,99.90
2018-09-27T07:15:55.511Z,99.90
2018-09-27T07:18:27.349Z,99.90
2018-09-27T07:20:58.272Z,99.90
2018-09-27T07:23:30.167Z,99.90
2018-09-27T07:26:01.924Z,99.90
2018-09-27T07:28:32.975Z,99.90
2018-09-27T07:31:04.107Z,99.90
2018-09-27T07:33:35.311Z,99.90
2018-09-27T07:36:06.908Z,99.90
2018-09-27T07:38:41.234Z,99.90
2018-09-27T07:41:13.104Z,99.90
2018-09-27T07:43:43.832Z,99.90
2018-09-27T07:46:14.742Z,99.90
2018-09-27T07:48:45.386Z,99.90
2018-09-27T07:51:16.036Z,99.90
2018-09-27T07:53:46.815Z,99.90
2018-09-27T07:56:17.264Z,99.90
2018-09-27T07:58:47.662Z,99.90
2018-09-27T08:01:17.982Z,99.90
2018-09-27T08:03:48.984Z,99.90
2018-09-27T08:06:19.578Z,99.90
2018-09-27T08:08:50.196Z,99.90
2018-09-27T08:11:21.668Z,99.90
2018-09-27T08:13:52.493Z,99.90
2018-09-27T08:16:23.704Z,99.20
2018-09-27T08:18:54.585Z,98.10
2018-09-27T08:21:25.851Z,96.60
2018-09-27T08:23:56.744Z,95.60
2018-09-27T08:26:27.654Z,94.40
2018-09-27T08:28:58.386Z,92.80
2018-09-27T08:31:29.087Z,92.30
2018-09-27T08:33:59.926Z,91.30
2018-09-27T08:36:30.511Z,89.10
2018-09-27T08:39:01.214Z,87.30
2018-09-27T08:41:31.928Z,87.60
2018-09-27T08:44:02.633Z,86.10
2018-09-27T08:46:33.346Z,82.90
2018-09-27T08:49:03.862Z,80.70
2018-09-27T08:51:34.851Z,80.60
2018-09-27T08:54:05.493Z,77.80
2018-09-27T08:56:36.425Z,76.60
2018-09-27T08:59:07.387Z,75.40
2018-09-27T09:01:37.812Z,74.70
2018-09-27T09:04:08.317Z,73.50
2018-09-27T09:06:38.778Z,71.80
2018-09-27T09:09:12.459Z,71.00
2018-09-27T09:11:43.230Z,68.70
2018-09-27T09:14:13.986Z,68.20
2018-09-27T09:16:44.725Z,67.00
2018-09-27T09:19:15.579Z,66.40
2018-09-27T09:21:46.131Z,66.50
2018-09-27T09:24:18.353Z,65.20
2018-09-27T09:26:48.857Z,64.40
2018-09-27T09:29:19.734Z,63.30
2018-09-27T09:31:50.184Z,62.50
2018-09-27T09:34:20.558Z,61.90
2018-09-27T09:36:51.154Z,63.20
2018-09-27T09:39:21.769Z,60.40
2018-09-27T09:41:52.351Z,60.40
2018-09-27T09:44:26.735Z,58.80
2018-09-27T09:46:57.339Z,58.30
2018-09-27T09:49:27.925Z,56.80
2018-09-27T09:51:58.440Z,56.20
2018-09-27T09:54:28.902Z,56.40
2018-09-27T09:56:59.560Z,56.80
2018-09-27T09:59:29.882Z,56.40
2018-09-27T10:02:00.491Z,54.90
2018-09-27T10:04:31.323Z,53.80
2018-09-27T10:07:01.756Z,53.30
2018-09-27T10:09:32.658Z,53.40
2018-09-27T10:12:03.777Z,53.40
2018-09-27T10:14:34.825Z,52.10
2018-09-27T10:17:05.615Z,51.60
2018-09-27T10:19:37.172Z,51.50
2018-09-27T10:22:09.344Z,50.50
2018-09-27T10:24:40.281Z,50.30
2018-09-27T10:27:11.238Z,49.60
2018-09-27T10:29:42.319Z,48.80
2018-09-27T10:32:13.404Z,48.70
2018-09-27T10:34:44.512Z,48.00
2018-09-27T10:37:15.658Z,46.70
2018-09-27T10:39:47.403Z,46.50
2018-09-27T10:42:18.391Z,45.60
2018-09-27T10:44:48.805Z,45.00
2018-09-27T10:47:19.453Z,43.90
2018-09-27T10:49:50.179Z,44.80
2018-09-27T10:52:21.934Z,44.80
2018-09-27T10:54:52.396Z,42.60
2018-09-27T10:57:22.957Z,42.50
2018-09-27T10:59:53.738Z,42.30
2018-09-27T11:02:24.413Z,40.90
2018-09-27T11:04:55.073Z,40.70
2018-09-27T11:07:25.803Z,40.70
2018-09-27T11:09:57.149Z,40.80
2018-09-27T11:12:27.741Z,39.80
2018-09-27T11:14:59.315Z,40.00
2018-09-27T11:17:29.779Z,38.70
2018-09-27T11:20:00.230Z,38.10
2018-09-27T11:22:30.756Z,37.90
2018-09-27T11:25:01.162Z,36.60
2018-09-27T11:27:31.904Z,35.20
2018-09-27T11:30:07.316Z,35.10
2018-09-27T11:32:45.431Z,33.60
2018-09-27T11:35:19.241Z,32.50
2018-09-27T11:37:49.584Z,31.60
2018-09-27T11:40:20.179Z,31.30
2018-09-27T11:42:50.783Z,30.60
2018-09-27T11:45:21.290Z,28.90
2018-09-27T11:47:51.768Z,28.90
2018-09-27T11:50:22.713Z,27.70
2018-09-27T11:52:53.089Z,26.30
2018-09-27T11:55:23.480Z,27.60
2018-09-27T11:57:54.128Z,27.50
2018-09-27T12:00:24.833Z,28.30
2018-09-27T12:02:55.174Z,27.60
2018-09-27T12:05:25.978Z,27.70
2018-09-27T12:07:56.472Z,27.20
2018-09-27T12:10:26.885Z,27.20
2018-09-27T12:12:57.692Z,27.30
2018-09-27T12:15:28.426Z,28.00
2018-09-27T12:17:58.647Z,27.60
2018-09-27T12:20:29.277Z,27.60
2018-09-27T12:22:59.870Z,27.00
2018-09-27T12:25:30.187Z,25.20
2018-09-27T12:28:00.617Z,25.60
2018-09-27T12:30:31.378Z,27.00
2018-09-27T12:33:02.305Z,27.20
2018-09-27T12:35:32.748Z,26.80
2018-09-27T12:38:03.392Z,25.80
2018-09-27T12:40:33.847Z,25.70
2018-09-27T12:43:05.356Z,25.70
2018-09-27T12:45:36.386Z,25.20
2018-09-27T12:48:07.266Z,23.00
2018-09-27T12:50:39.655Z,23.80
2018-09-27T12:53:10.478Z,23.10
2018-09-27T12:55:41.161Z,22.60
2018-09-27T12:58:12.168Z,22.70
2018-09-27T13:00:43.157Z,23.00
2018-09-27T13:03:14.352Z,23.30
2018-09-27T13:05:44.999Z,23.80
2018-09-27T13:08:15.633Z,24.20
2018-09-27T13:10:46.177Z,25.00
2018-09-27T13:13:16.943Z,25.30
2018-09-27T13:15:47.505Z,24.00
2018-09-27T13:18:17.964Z,24.60
2018-09-27T13:20:48.372Z,24.50
2018-09-27T13:23:18.971Z,23.80
2018-09-27T13:25:49.412Z,23.80
2018-09-27T13:28:20.061Z,23.60
2018-09-27T13:30:53.577Z,23.00
2018-09-27T13:33:24.336Z,25.10
2018-09-27T13:35:54.807Z,25.50
2018-09-27T13:38:25.526Z,23.80
2018-09-27T13:40:57.045Z,23.20
2018-09-27T13:43:27.594Z,22.10
2018-09-27T13:45:58.314Z,22.70
2018-09-27T13:48:28.754Z,22.10
2018-09-27T13:50:59.317Z,22.80
2018-09-27T13:53:30.041Z,23.10
2018-09-27T13:56:00.706Z,24.00
2018-09-27T13:58:31.248Z,22.60
2018-09-27T14:01:02.047Z,23.40
2018-09-27T14:03:32.673Z,23.50
2018-09-27T14:06:03.313Z,23.20
2018-09-27T14:08:34.113Z,24.20
2018-09-27T14:11:04.895Z,22.60
2018-09-27T14:13:35.545Z,22.80
2018-09-27T14:16:06.109Z,21.40
2018-09-27T14:18:36.571Z,21.90
2018-09-27T14:21:07.280Z,22.90
2018-09-27T14:23:37.996Z,22.90
2018-09-27T14:26:08.434Z,23.00
2018-09-27T14:28:39.411Z,23.10
2018-09-27T14:31:09.966Z,23.20
2018-09-27T14:33:40.418Z,23.20
2018-09-27T14:36:10.906Z,22.70
2018-09-27T14:38:41.424Z,23.90
2018-09-27T14:41:11.865Z,24.00
2018-09-27T14:43:42.498Z,24.40
2018-09-27T14:46:13.009Z,24.90
2018-09-27T14:48:43.739Z,25.90
2018-09-27T14:51:14.080Z,24.40
2018-09-27T14:53:44.653Z,24.40
2018-09-27T14:56:15.763Z,24.60
2018-09-27T14:58:46.530Z,24.40
2018-09-27T15:01:17.074Z,25.10
2018-09-27T15:03:47.672Z,25.60
2018-09-27T15:06:18.159Z,25.40
2018-09-27T15:08:48.737Z,25.60
2018-09-27T15:11:19.249Z,26.20
2018-09-27T15:13:50.105Z,25.80
2018-09-27T15:16:20.913Z,25.90
2018-09-27T15:18:51.364Z,26.10
2018-09-27T15:21:21.973Z,26.40
2018-09-27T15:23:52.386Z,26.10
2018-09-27T15:26:22.894Z,26.60
2018-09-27T15:28:53.681Z,26.90
2018-09-27T15:31:24.104Z,27.40
2018-09-27T15:33:54.828Z,27.10
2018-09-27T15:36:26.663Z,27.50
2018-09-27T15:38:57.370Z,27.10
2018-09-27T15:41:28.848Z,27.20
2018-09-27T15:44:00.004Z,27.30
2018-09-27T15:46:30.863Z,27.80
2018-09-27T15:49:01.688Z,27.80
2018-09-27T15:51:32.721Z,28.10
2018-09-27T15:54:03.637Z,28.70
2018-09-27T15:56:34.439Z,28.60
2018-09-27T15:59:05.141Z,28.90
2018-09-27T16:01:35.855Z,29.30
2018-09-27T16:04:06.429Z,29.00
2018-09-27T16:06:36.991Z,29.20
2018-09-27T16:09:09.461Z,29.60
2018-09-27T16:11:40.124Z,29.20
2018-09-27T16:14:10.506Z,29.80
2018-09-27T16:16:41.362Z,29.70
2018-09-27T16:19:12.070Z,29.80
2018-09-27T16:21:42.652Z,29.60
2018-09-27T16:24:13.129Z,30.00
2018-09-27T16:26:43.837Z,30.70
2018-09-27T16:29:14.493Z,30.40
2018-09-27T16:31:45.171Z,30.40
2018-09-27T16:34:15.663Z,31.10
2018-09-27T16:36:46.519Z,30.90
2018-09-27T16:39:16.895Z,31.30
2018-09-27T16:41:47.408Z,31.90
2018-09-27T16:44:18.081Z,31.40
2018-09-27T16:46:48.611Z,31.70
2018-09-27T16:49:19.470Z,31.90
2018-09-27T16:51:50.002Z,32.60
2018-09-27T16:54:20.780Z,32.60
2018-09-27T16:56:51.317Z,32.50
2018-09-27T16:59:22.107Z,33.30
2018-09-27T17:01:52.749Z,33.10
2018-09-27T17:04:24.040Z,33.70
2018-09-27T17:06:56.247Z,35.20
2018-09-27T17:09:30.566Z,36.40
2018-09-27T17:12:02.170Z,38.40
2018-09-27T17:14:35.174Z,39.00
2018-09-27T17:17:06.417Z,40.30
2018-09-27T17:19:39.314Z,40.40
2018-09-27T17:22:09.927Z,41.20
2018-09-27T17:24:40.362Z,42.90
2018-09-27T17:27:11.006Z,44.20
2018-09-27T17:29:41.786Z,45.30
2018-09-27T17:32:12.331Z,45.80
2018-09-27T17:34:43.127Z,46.10
2018-09-27T17:37:13.764Z,46.50
2018-09-27T17:39:44.329Z,47.20
2018-09-27T17:42:14.706Z,47.20
2018-09-27T17:44:45.188Z,47.60
2018-09-27T17:47:15.844Z,47.50
2018-09-27T17:49:46.546Z,47.50
2018-09-27T17:52:17.402Z,47.60
2018-09-27T17:54:48.056Z,48.10
2018-09-27T17:57:21.062Z,48.30
2018-09-27T17:59:53.225Z,48.50
2018-09-27T18:02:24.787Z,48.40
2018-09-27T18:04:55.299Z,48.90
2018-09-27T18:07:25.770Z,49.10
2018-09-27T18:09:56.552Z,49.00
2018-09-27T18:12:27.389Z,49.00
2018-09-27T18:14:58.032Z,50.60
2018-09-27T18:17:28.769Z,51.00
2018-09-27T18:19:59.472Z,50.90
2018-09-27T18:22:30.530Z,51.60
2018-09-27T18:25:01.264Z,52.60
2018-09-27T18:27:31.752Z,52.70
2018-09-27T18:30:02.438Z,52.80
2018-09-27T18:32:33.252Z,53.40
2018-09-27T18:35:03.998Z,53.60
2018-09-27T18:37:34.607Z,54.10
2018-09-27T18:40:05.333Z,54.50
2018-09-27T18:42:35.791Z,54.70
2018-09-27T18:45:06.450Z,55.00
2018-09-27T18:47:36.969Z,55.40
2018-09-27T18:50:07.600Z,55.60
2018-09-27T18:52:38.183Z,56.00
2018-09-27T18:55:13.746Z,56.30
2018-09-27T18:57:46.314Z,56.40
2018-09-27T19:00:19.586Z,56.50
2018-09-27T19:02:53.654Z,56.60
2018-09-27T19:05:27.093Z,56.90
2018-09-27T19:08:00.056Z,57.20
2018-09-27T19:10:36.478Z,57.60
2018-09-27T19:13:08.091Z,57.80
2018-09-27T19:15:40.047Z,58.20
2018-09-27T19:18:10.570Z,58.20
2018-09-27T19:20:41.251Z,58.70
2018-09-27T19:23:11.552Z,59.20
2018-09-27T19:25:42.384Z,59.70
2018-09-27T19:28:12.909Z,60.40
2018-09-27T19:30:43.656Z,60.90
2018-09-27T19:33:14.181Z,61.60
2018-09-27T19:35:44.961Z,62.20
2018-09-27T19:38:15.483Z,62.80
2018-09-27T19:40:47.904Z,63.50
2018-09-27T19:43:18.486Z,64.70
2018-09-27T19:45:49.455Z,65.30
2018-09-27T19:48:20.796Z,65.30
2018-09-27T19:50:51.706Z,65.80
2018-09-27T19:53:22.409Z,66.10
2018-09-27T19:55:52.993Z,67.00
2018-09-27T19:58:23.829Z,67.70
2018-09-27T20:00:54.614Z,68.50
2018-09-27T20:03:25.540Z,69.10
2018-09-27T20:05:56.197Z,69.60
2018-09-27T20:08:27.382Z,70.20
2018-09-27T20:10:58.660Z,70.40
2018-09-27T20:13:29.613Z,70.80
2018-09-27T20:16:02.646Z,71.40
2018-09-27T20:18:33.573Z,72.90
2018-09-27T20:21:04.455Z,74.40
2018-09-27T20:23:35.012Z,74.80
2018-09-27T20:26:06.090Z,75.50
2018-09-27T20:28:36.673Z,76.60
2018-09-27T20:31:07.315Z,77.70
2018-09-27T20:33:38.052Z,78.10
2018-09-27T20:36:08.864Z,79.10
2018-09-27T20:38:39.368Z,80.00
2018-09-27T20:41:10.082Z,81.30
2018-09-27T20:43:41.028Z,82.90
2018-09-27T20:46:11.879Z,84.50
2018-09-27T20:48:42.673Z,85.80
2018-09-27T20:51:13.206Z,87.50
2018-09-27T20:53:44.230Z,89.60
2018-09-27T20:56:14.941Z,90.50
2018-09-27T20:58:45.946Z,91.40
2018-09-27T21:01:16.552Z,92.30
2018-09-27T21:03:47.243Z,93.00
2018-09-27T21:06:17.833Z,94.20
2018-09-27T21:08:48.634Z,94.70
2018-09-27T21:11:19.576Z,95.50
2018-09-27T21:13:50.140Z,96.00
2018-09-27T21:16:21.140Z,96.60
2018-09-27T21:18:52.060Z,97.50
2018-09-27T21:21:22.744Z,98.00
2018-09-27T21:23:53.606Z,98.30
2018-09-27T21:26:25.147Z,99.70
2018-09-27T21:28:56.117Z,99.90
2018-09-27T21:31:27.238Z,99.90
2018-09-27T21:33:58.550Z,99.90
2018-09-27T21:36:29.185Z,99.90
2018-09-27T21:38:59.806Z,99.90
2018-09-27T21:41:30.790Z,99.90
2018-09-27T21:44:01.672Z,99.90
2018-09-27T21:46:32.593Z,99.90
2018-09-27T21:49:03.132Z,99.90
2018-09-27T21:51:33.638Z,99.90
2018-09-27T21:54:04.007Z,99.90
2018-09-27T21:56:34.604Z,99.90
2018-09-27T21:59:05.139Z,99.90
2018-09-27T22:01:35.571Z,99.90
2018-09-27T22:04:06.094Z,99.90
2018-09-27T22:06:37.960Z,99.90
2018-09-27T22:09:10.527Z,99.90
2018-09-27T22:11:41.000Z,99.90
2018-09-27T22:14:11.836Z,99.90
2018-09-27T22:16:42.284Z,99.90
2018-09-27T22:19:13.014Z,99.90
2018-09-27T22:21:43.607Z,99.90
2018-09-27T22:24:14.220Z,99.90
2018-09-27T22:26:44.778Z,99.90
2018-09-27T22:29:15.323Z,99.90
2018-09-27T22:31:45.778Z,99.90
2018-09-27T22:34:16.197Z,99.90
2018-09-27T22:36:46.753Z,99.90
2018-09-27T22:39:17.534Z,99.90
2018-09-27T22:41:48.220Z,99.90
2018-09-27T22:44:19.036Z,99.90
2018-09-27T22:46:49.686Z,99.90
2018-09-27T22:49:20.213Z,99.90
2018-09-27T22:51:50.686Z,99.90
2018-09-27T22:54:21.427Z,99.90
2018-09-27T22:56:51.839Z,99.90
2018-09-27T22:59:22.225Z,99.90
2018-09-27T23:01:52.845Z,99.90
2018-09-27T23:04:23.463Z,99.90
2018-09-27T23:06:54.448Z,99.90
2018-09-27T23:09:25.013Z,99.90
2018-09-27T23:11:55.830Z,99.90
2018-09-27T23:14:26.308Z,99.90
2018-09-27T23:16:56.619Z,99.90
2018-09-27T23:19:27.455Z,99.90
2018-09-27T23:21:58.222Z,99.90
2018-09-27T23:24:29.259Z,99.90
2018-09-27T23:26:59.824Z,99.90
2018-09-27T23:29:30.604Z,99.90
2018-09-27T23:32:01.083Z,99.90
2018-09-27T23:34:31.921Z,99.90
2018-09-27T23:37:02.403Z,99.90
2018-09-27T23:39:32.959Z,99.90
2018-09-27T23:42:03.509Z,99.90
2018-09-27T23:44:34.045Z,99.90
2018-09-27T23:47:04.945Z,99.90
2018-09-27T23:49:36.426Z,99.90
2018-09-27T23:52:07.412Z,99.90
2018-09-27T23:54:38.033Z,99.90
2018-09-27T23:57:08.722Z,99.90
2018-09-27T23:59:39.102Z,99.90
